Time;durP1;ratioP1;P1;durP2;ratioP2;P2;SDS_P1;SDS_P2;PMS_P1;PMS_P2;Temp;Humidity;BMP_temperature;BMP_pressure;BME280_temperature;BME280_humidity;BME280_pressure;Samples;Min_cycle;Max_cycle;Signal;HPM_P1;HPM_P2
2022/01/20 00:02:01;;;;;;;143.23;69.78;;;;;;;-144.47;100.00;61586.06;4995428;28;20149;-80
2022/01/20 00:25:56;;;;;;;135.60;67.20;;;;;;;-144.47;100.00;61586.06;4995660;28;20030;-80
2022/01/20 00:28:29;;;;;;;141.55;69.20;;;;;;;-144.47;100.00;61586.06;5000564;28;20045;-78
2022/01/20 00:31:29;;;;;;;139.82;68.88;;;;;;;-144.47;100.00;61586.06;4999474;28;20038;-79
2022/01/20 00:33:50;;;;;;;137.07;68.57;;;;;;;-144.47;100.00;61586.06;4996418;28;20495;-80
2022/01/20 00:38:42;;;;;;;133.88;68.40;;;;;;;-144.47;100.00;61586.06;5030529;28;20142;-79
2022/01/20 00:41:14;;;;;;;140.80;69.05;;;;;;;-144.47;100.00;61586.06;5000228;28;20483;-80
2022/01/20 00:43:44;;;;;;;149.27;68.13;;;;;;;-144.47;100.00;61586.06;4998032;28;20493;-80
2022/01/20 00:46:09;;;;;;;139.98;69.85;;;;;;;-144.47;100.00;61586.06;5001418;28;20076;-78
2022/01/20 00:48:35;;;;;;;133.60;67.30;;;;;;;-144.47;100.00;61586.06;4996870;28;20121;-79
2022/01/20 00:51:00;;;;;;;140.85;71.22;;;;;;;-144.47;100.00;61586.06;5001359;28;20034;-80
2022/01/20 00:53:26;;;;;;;142.75;70.05;;;;;;;-144.47;100.00;61586.06;4997985;28;20486;-80
2022/01/20 00:55:52;;;;;;;144.52;68.15;;;;;;;-144.47;100.00;61586.06;5002070;28;20041;-80
2022/01/20 00:58:17;;;;;;;141.63;68.97;;;;;;;-144.47;100.00;61586.06;5000211;28;20030;-81
2022/01/20 01:00:43;;;;;;;146.00;70.25;;;;;;;-144.47;100.00;61586.06;5000910;28;20109;-81
2022/01/20 01:03:08;;;;;;;141.27;70.80;;;;;;;-144.47;100.00;61586.06;5003782;28;20525;-80
2022/01/20 01:05:41;;;;;;;147.35;70.72;;;;;;;-144.47;100.00;61586.06;5002008;28;20375;-80
2022/01/20 01:08:07;;;;;;;141.48;68.78;;;;;;;-144.47;100.00;61586.06;4999703;28;20502;-80
2022/01/20 01:10:38;;;;;;;141.52;70.78;;;;;;;-144.47;100.00;61586.06;5002052;28;20093;-79
2022/01/20 01:13:09;;;;;;;141.98;67.82;;;;;;;-144.47;100.00;61586.06;4998594;28;20073;-80
2022/01/20 01:15:40;;;;;;;147.75;70.57;;;;;;;-144.47;100.00;61586.06;4997156;28;20060;-79
2022/01/20 01:23:31;;;;;;;141.70;71.35;;;;;;;-144.47;100.00;61586.06;5002172;28;20029;-77
2022/01/20 01:25:57;;;;;;;;;;;;;;;-144.47;100.00;61586.06;5003666;28;20050;-79
2022/01/20 01:28:26;;;;;;;145.05;71.22;;;;;;;-144.47;100.00;61586.06;5004179;28;19924;-79
2022/01/20 01:33:21;;;;;;;147.43;70.47;;;;;;;-144.47;100.00;61586.06;5009099;28;20050;-79
2022/01/20 01:35:55;;;;;;;142.23;72.57;;;;;;;-144.47;100.00;61586.06;5016420;28;20049;-79
2022/01/20 01:38:35;;;;;;;149.05;74.07;;;;;;;-144.47;100.00;61586.06;5011116;28;20022;-79
2022/01/20 01:41:03;;;;;;;147.25;71.03;;;;;;;-144.47;100.00;61586.06;5012415;28;20438;-80
2022/01/20 01:43:31;;;;;;;148.23;71.22;;;;;;;-144.47;100.00;61586.06;5013200;28;20429;-81
2022/01/20 01:46:00;;;;;;;156.07;73.57;;;;;;;-144.47;100.00;61586.06;5005907;28;20458;-80
2022/01/20 01:48:27;;;;;;;154.93;74.22;;;;;;;-144.47;100.00;61586.06;5009047;28;20034;-78
2022/01/20 01:50:54;;;;;;;150.57;73.82;;;;;;;-144.47;100.00;61586.06;5016880;28;20076;-81
2022/01/20 01:53:21;;;;;;;143.20;71.20;;;;;;;-144.47;100.00;61586.06;5013154;28;20033;-79
2022/01/20 01:55:46;;;;;;;148.32;72.43;;;;;;;-144.47;100.00;61586.06;5010217;28;20065;-79
2022/01/20 01:58:12;;;;;;;148.65;71.53;;;;;;;-144.47;100.00;61586.06;5012631;28;20051;-81
2022/01/20 02:00:50;;;;;;;151.45;73.82;;;;;;;-144.47;100.00;61586.06;5017090;28;20030;-80
2022/01/20 02:03:17;;;;;;;143.07;72.45;;;;;;;-144.47;100.00;61586.06;5018249;28;20030;-80
2022/01/20 02:06:50;;;;;;;154.50;72.88;;;;;;;-144.47;100.00;61586.06;5019694;28;20026;-80
2022/01/20 02:19:44;;;;;;;152.95;75.57;;;;;;;-144.47;100.00;61586.06;4997900;28;20058;-79
2022/01/20 02:22:33;;;;;;;151.07;71.82;;;;;;;-144.47;100.00;61586.06;5012664;28;20470;-78
2022/01/20 02:25:27;;;;;;;148.40;71.40;;;;;;;-144.47;100.00;61586.06;5001459;28;20038;-79
2022/01/20 02:27:57;;;;;;;159.82;75.55;;;;;;;-144.47;100.00;61586.06;5000251;28;20053;-79
2022/01/20 02:30:26;;;;;;;155.75;75.32;;;;;;;-144.47;100.00;61586.06;5002223;28;20386;-79
2022/01/20 02:32:55;;;;;;;152.15;72.82;;;;;;;-144.47;100.00;61586.06;5000183;28;20046;-79
2022/01/20 02:35:24;;;;;;;147.07;71.13;;;;;;;-144.47;100.00;61586.06;4985149;28;20045;-79
2022/01/20 02:37:58;;;;;;;145.73;71.07;;;;;;;-144.47;100.00;61586.06;4998999;28;20023;-79
2022/01/20 02:45:35;;;;;;;151.93;70.55;;;;;;;-144.47;100.00;61586.06;4997020;28;20034;-80
2022/01/20 02:48:03;;;;;;;145.65;69.97;;;;;;;-144.47;100.00;61586.06;4995077;28;20038;-79
2022/01/20 02:50:31;;;;;;;144.60;70.03;;;;;;;-144.47;100.00;61586.06;5001567;28;20048;-80
2022/01/20 02:52:56;;;;;;;152.80;71.55;;;;;;;-144.47;100.00;61586.06;4998715;28;20044;-80
2022/01/20 02:55:22;;;;;;;154.27;71.88;;;;;;;-144.47;100.00;61586.06;5000726;28;20035;-80
2022/01/20 02:57:47;;;;;;;152.02;72.18;;;;;;;-144.47;100.00;61586.06;5001445;28;20045;-79
2022/01/20 03:00:14;;;;;;;151.00;71.22;;;;;;;-144.47;100.00;61586.06;5001364;28;20027;-80
2022/01/20 03:02:41;;;;;;;152.77;74.88;;;;;;;-144.47;100.00;61586.06;5001731;28;20033;-80
2022/01/20 03:05:07;;;;;;;158.63;78.07;;;;;;;-144.47;100.00;61586.06;4998386;28;20549;-79
2022/01/20 03:07:37;;;;;;;158.27;76.13;;;;;;;-144.47;100.00;61586.06;5000735;28;20101;-79
2022/01/20 03:10:05;;;;;;;161.85;75.57;;;;;;;-144.47;100.00;61586.06;4995605;28;20026;-79
2022/01/20 03:12:31;;;;;;;165.88;75.97;;;;;;;-144.47;100.00;61586.06;5002402;28;20670;-79
2022/01/20 03:14:57;;;;;;;161.95;76.25;;;;;;;-144.47;100.00;61586.06;4998933;28;20042;-80
2022/01/20 03:17:23;;;;;;;158.27;75.32;;;;;;;-144.47;100.00;61586.06;5000349;28;20555;-79
2022/01/20 03:19:48;;;;;;;162.85;79.25;;;;;;;-144.47;100.00;61586.06;5000559;28;20121;-80
2022/01/20 03:22:14;;;;;;;156.05;75.30;;;;;;;-144.47;100.00;61586.06;4998917;28;20113;-79
2022/01/20 03:24:40;;;;;;;158.65;74.38;;;;;;;-144.47;100.00;61586.06;5002373;28;20022;-79
2022/01/20 03:27:06;;;;;;;166.48;78.80;;;;;;;-144.47;100.00;61586.06;4998042;28;20102;-80
2022/01/20 03:29:32;;;;;;;163.43;77.50;;;;;;;-144.47;100.00;61586.06;4994241;28;20076;-78
2022/01/20 03:31:57;;;;;;;166.80;78.72;;;;;;;-144.47;100.00;61586.06;5000089;28;20406;-79
2022/01/20 03:34:23;;;;;;;159.73;74.47;;;;;;;-144.47;100.00;61586.06;4999010;28;20038;-79
2022/01/20 03:36:52;;;;;;;153.05;75.65;;;;;;;-144.47;100.00;61586.06;4999245;28;20022;-79
2022/01/20 03:39:22;;;;;;;160.32;78.43;;;;;;;-144.47;100.00;61586.06;4998984;28;20449;-79
2022/01/20 03:41:48;;;;;;;161.02;74.90;;;;;;;-144.47;100.00;61586.06;4999024;28;20034;-79
2022/01/20 03:44:21;;;;;;;162.02;77.22;;;;;;;-144.47;100.00;61586.06;4999186;28;20049;-79
2022/01/20 03:46:46;;;;;;;152.13;73.50;;;;;;;-144.47;100.00;61586.06;4998800;28;20387;-80
2022/01/20 03:49:26;;;;;;;155.85;76.03;;;;;;;-144.47;100.00;61586.06;5000102;28;20394;-78
2022/01/20 03:51:54;;;;;;;157.50;74.88;;;;;;;-144.47;100.00;61586.06;4999268;28;20037;-79
2022/01/20 03:54:19;;;;;;;163.02;74.60;;;;;;;-144.47;100.00;61586.06;4998889;28;20030;-79
2022/01/20 03:57:03;;;;;;;160.65;77.45;;;;;;;-144.47;100.00;61586.06;4995081;28;20053;-79
2022/01/20 03:59:55;;;;;;;161.23;75.00;;;;;;;-144.47;100.00;61586.06;4977343;28;20483;-78
2022/01/20 04:02:40;;;;;;;156.98;76.43;;;;;;;-144.47;100.00;61586.06;4999907;28;20495;-78
2022/01/20 04:05:14;;;;;;;161.98;75.47;;;;;;;-144.47;100.00;61586.06;4998756;28;20037;-78
2022/01/20 04:07:50;;;;;;;157.45;74.38;;;;;;;-144.47;100.00;61586.06;4999536;28;20048;-78
2022/01/20 04:10:15;;;;;;;151.90;74.15;;;;;;;-144.47;100.00;61586.06;4998225;28;20109;-78
2022/01/20 04:12:41;;;;;;;154.95;72.45;;;;;;;-144.47;100.00;61586.06;4999966;28;20478;-78
2022/01/20 04:15:09;;;;;;;160.38;73.47;;;;;;;-144.47;100.00;61586.06;4999027;28;20121;-80
2022/01/20 04:17:39;;;;;;;143.65;71.93;;;;;;;-144.47;100.00;61586.06;4994166;28;20053;-79
2022/01/20 04:20:08;;;;;;;156.05;73.97;;;;;;;-144.47;100.00;61586.06;4994331;28;20031;-80
2022/01/20 04:22:36;;;;;;;154.95;72.25;;;;;;;-144.47;100.00;61586.06;5000827;28;20041;-79
2022/01/20 04:25:03;;;;;;;143.77;71.85;;;;;;;-144.47;100.00;61586.06;4996284;28;20034;-79
2022/01/20 04:27:29;;;;;;;153.75;72.22;;;;;;;-144.47;100.00;61586.06;4997347;28;20080;-79
2022/01/20 04:29:56;;;;;;;147.38;74.13;;;;;;;-144.47;100.00;61586.06;4997878;28;20030;-80
2022/01/20 04:32:21;;;;;;;154.38;75.50;;;;;;;-144.47;100.00;61586.06;5002623;28;20037;-79
2022/01/20 04:34:47;;;;;;;158.10;72.70;;;;;;;-144.47;100.00;61586.06;5004518;28;20068;-79
2022/01/20 04:37:14;;;;;;;147.00;72.38;;;;;;;-144.47;100.00;61586.06;5002559;28;20045;-80
2022/01/20 04:39:45;;;;;;;149.32;71.75;;;;;;;-144.47;100.00;61586.06;5004800;28;20030;-79
2022/01/20 04:42:11;;;;;;;143.68;70.75;;;;;;;-144.47;100.00;61586.06;5002782;28;20035;-80
2022/01/20 04:44:43;;;;;;;139.13;67.15;;;;;;;-144.47;100.00;61586.06;5005863;28;20113;-80
2022/01/20 04:47:19;;;;;;;137.75;66.18;;;;;;;-144.47;100.00;61586.06;4998141;28;20033;-79
2022/01/20 04:57:58;;;;;;;151.38;72.88;;;;;;;-144.47;100.00;61586.06;5003501;28;20045;-80
2022/01/20 05:00:24;;;;;;;145.18;71.40;;;;;;;-144.47;100.00;61586.06;5004104;28;20042;-79
2022/01/20 05:03:13;;;;;;;144.40;69.30;;;;;;;-144.47;100.00;61586.06;4999504;28;20058;-78
2022/01/20 05:05:38;;;;;;;143.20;70.50;;;;;;;-144.47;100.00;61586.06;5004256;28;20419;-80
2022/01/20 05:08:09;;;;;;;151.85;72.13;;;;;;;-144.47;100.00;61586.06;5001943;28;20030;-79
2022/01/20 05:10:35;;;;;;;142.57;67.97;;;;;;;-144.47;100.00;61586.06;5004576;28;20038;-78
2022/01/20 05:13:21;;;;;;;147.32;73.18;;;;;;;-144.47;100.00;61586.06;5000613;28;20035;-81
2022/01/20 05:15:47;;;;;;;149.65;70.30;;;;;;;-144.47;100.00;61586.06;5002147;28;20053;-79
2022/01/20 05:18:12;;;;;;;158.73;71.78;;;;;;;-144.47;100.00;61586.06;5003493;28;20541;-79
2022/01/20 05:20:38;;;;;;;148.57;70.55;;;;;;;-144.47;100.00;61586.06;5001523;28;20483;-80
2022/01/20 05:23:03;;;;;;;149.80;71.55;;;;;;;-144.47;100.00;61586.06;5004922;28;20490;-79
2022/01/20 05:25:29;;;;;;;149.75;70.43;;;;;;;-144.47;100.00;61586.06;5002767;28;20113;-80
2022/01/20 05:27:55;;;;;;;142.32;69.35;;;;;;;-144.47;100.00;61586.06;4986393;28;20103;-80
2022/01/20 05:30:20;;;;;;;139.90;68.30;;;;;;;-144.47;100.00;61586.06;5002888;28;20382;-79
2022/01/20 05:33:12;;;;;;;142.15;70.10;;;;;;;-144.47;100.00;61586.06;4999138;28;20046;-80
2022/01/20 05:35:38;;;;;;;149.63;70.53;;;;;;;-144.47;100.00;61586.06;5004342;28;20083;-80
2022/01/20 05:38:03;;;;;;;149.15;71.45;;;;;;;-144.47;100.00;61586.06;5000489;28;20029;-79
2022/01/20 05:40:29;;;;;;;146.38;70.15;;;;;;;-144.47;100.00;61586.06;5005034;28;20382;-78
2022/01/20 05:42:55;;;;;;;142.65;69.55;;;;;;;-144.47;100.00;61586.06;5002734;28;20029;-79
2022/01/20 05:45:22;;;;;;;144.70;69.53;;;;;;;-144.47;100.00;61586.06;5003311;28;20053;-79
2022/01/20 05:47:58;;;;;;;141.15;69.32;;;;;;;-144.47;100.00;61586.06;5020888;28;20030;-79
2022/01/20 05:50:44;;;;;;;147.65;69.45;;;;;;;-144.47;100.00;61586.06;5016960;28;20089;-79
2022/01/20 05:53:11;;;;;;;144.20;68.35;;;;;;;-144.47;100.00;61586.06;5005209;28;20030;-78
2022/01/20 05:55:37;;;;;;;141.43;67.90;;;;;;;-144.47;100.00;61586.06;5017114;28;20064;-77
2022/01/20 05:58:06;;;;;;;144.45;68.88;;;;;;;-144.47;100.00;61586.06;5001251;28;20045;-78
2022/01/20 06:00:36;;;;;;;144.60;67.93;;;;;;;-144.47;100.00;61586.06;5000478;28;20050;-80
2022/01/20 06:05:47;;;;;;;145.02;68.82;;;;;;;-144.47;100.00;61586.06;5002933;28;20081;-79
2022/01/20 06:08:14;;;;;;;140.85;65.25;;;;;;;-144.47;100.00;61586.06;5003611;28;20103;-80
2022/01/20 06:10:40;;;;;;;150.30;68.18;;;;;;;-144.47;100.00;61586.06;5000767;28;20577;-79
2022/01/20 06:13:25;;;;;;;134.70;65.25;;;;;;;-144.47;100.00;61586.06;5000097;28;20551;-77
2022/01/20 06:15:51;;;;;;;145.30;66.65;;;;;;;-144.47;100.00;61586.06;4999074;28;20031;-79
2022/01/20 06:18:18;;;;;;;134.50;66.70;;;;;;;-144.47;100.00;61586.06;5000592;28;20024;-79
2022/01/20 06:20:50;;;;;;;138.63;66.35;;;;;;;-144.47;100.00;61586.06;5000644;28;20088;-79
2022/01/20 06:23:17;;;;;;;134.25;64.75;;;;;;;-144.47;100.00;61586.06;5001753;28;20505;-81
2022/01/20 06:25:44;;;;;;;134.18;65.38;;;;;;;-144.47;100.00;61586.06;5002129;28;20045;-80
2022/01/20 06:28:09;;;;;;;139.00;66.00;;;;;;;-144.47;100.00;61586.06;5000313;28;20032;-81
2022/01/20 06:30:35;;;;;;;135.77;64.55;;;;;;;-144.47;100.00;61586.06;5003490;28;20430;-82
2022/01/20 06:33:03;;;;;;;128.73;65.70;;;;;;;-144.47;100.00;61586.06;4651090;28;10000110;-80
2022/01/20 06:35:36;;;;;;;138.05;63.50;;;;;;;-144.47;100.00;61586.06;4998559;28;20112;-78
2022/01/20 06:38:03;;;;;;;138.85;66.53;;;;;;;-144.47;100.00;61586.06;4996466;28;20502;-80
2022/01/20 06:40:30;;;;;;;135.55;64.82;;;;;;;-144.47;100.00;61586.06;5004093;28;20037;-80
2022/01/20 06:42:55;;;;;;;135.00;63.65;;;;;;;-144.47;100.00;61586.06;4997878;28;20105;-80
2022/01/20 06:45:23;;;;;;;135.90;67.88;;;;;;;-144.47;100.00;61586.06;4997953;28;20149;-76
2022/01/20 06:47:53;;;;;;;140.27;67.25;;;;;;;-144.47;100.00;61586.06;4650475;28;10000216;-75
2022/01/20 06:50:20;;;;;;;132.48;63.70;;;;;;;-144.47;100.00;61586.06;5000163;28;20040;-74
2022/01/20 06:52:47;;;;;;;143.43;68.95;;;;;;;-144.47;100.00;61586.06;5000906;28;20041;-75
2022/01/20 06:55:15;;;;;;;136.27;65.00;;;;;;;-144.47;100.00;61586.06;5001325;28;20037;-75
2022/01/20 06:57:41;;;;;;;139.85;65.00;;;;;;;-144.47;100.00;61586.06;5000014;28;20026;-76
2022/01/20 07:00:10;;;;;;;145.35;65.18;;;;;;;-144.47;100.00;61586.06;4997907;28;20104;-76
2022/01/20 07:02:36;;;;;;;138.98;65.88;;;;;;;-144.47;100.00;61586.06;5031339;28;20025;-76
2022/01/20 07:05:02;;;;;;;132.82;64.05;;;;;;;-144.47;100.00;61586.06;4998654;28;20045;-78
2022/01/20 07:07:29;;;;;;;147.88;65.88;;;;;;;-144.47;100.00;61586.06;5000408;28;20057;-75
2022/01/20 07:10:20;;;;;;;140.27;64.68;;;;;;;-144.47;100.00;61586.06;4993954;28;20033;-76
2022/01/20 07:12:52;;;;;;;128.98;63.72;;;;;;;-144.47;100.00;61586.06;5002483;28;20034;-75
2022/01/20 07:15:19;;;;;;;136.40;64.97;;;;;;;-144.47;100.00;61586.06;5003085;28;20088;-76
2022/01/20 07:17:52;;;;;;;135.77;64.80;;;;;;;-144.47;100.00;61586.06;5005466;28;20484;-75
2022/01/20 07:20:22;;;;;;;134.45;63.85;;;;;;;-144.47;100.00;61586.06;5006293;28;20030;-76
2022/01/20 07:23:00;;;;;;;133.43;62.47;;;;;;;-144.47;100.00;61586.06;4998569;28;20035;-75
2022/01/20 07:25:27;;;;;;;130.43;63.17;;;;;;;-144.47;100.00;61586.06;4997369;28;20034;-74
2022/01/20 07:28:00;;;;;;;138.32;65.07;;;;;;;-144.47;100.00;61586.06;4998752;28;20034;-76
2022/01/20 07:30:25;;;;;;;134.00;65.47;;;;;;;-144.47;100.00;61586.06;4999787;28;20062;-75
2022/01/20 07:32:51;;;;;;;140.98;64.80;;;;;;;-144.47;100.00;61586.06;4998389;28;20049;-76
2022/01/20 07:35:21;;;;;;;131.45;65.18;;;;;;;-144.47;100.00;61586.06;4999086;28;20487;-75
2022/01/20 07:37:47;;;;;;;133.52;62.15;;;;;;;-144.47;100.00;61586.06;5000405;28;20033;-75
2022/01/20 07:40:13;;;;;;;132.02;64.00;;;;;;;-144.47;100.00;61586.06;4997952;28;20434;-76
2022/01/20 07:42:39;;;;;;;137.68;66.07;;;;;;;-144.47;100.00;61586.06;5000278;28;20097;-76
2022/01/20 07:45:10;;;;;;;136.93;65.55;;;;;;;-144.47;100.00;61586.06;4997505;28;20468;-77
2022/01/20 07:48:04;;;;;;;124.93;63.75;;;;;;;-144.47;100.00;61586.06;4930158;28;20048;-77
2022/01/20 07:50:31;;;;;;;134.55;66.07;;;;;;;-144.47;100.00;61586.06;4999797;28;20053;-77
2022/01/20 07:52:57;;;;;;;129.13;63.42;;;;;;;-144.47;100.00;61586.06;4977695;28;20037;-75
2022/01/20 07:55:23;;;;;;;125.15;63.00;;;;;;;-144.47;100.00;61586.06;4993674;28;20481;-76
2022/01/20 07:57:48;;;;;;;130.02;63.65;;;;;;;-144.47;100.00;61586.06;4992257;28;20460;-77
2022/01/20 08:00:15;;;;;;;132.18;63.75;;;;;;;-144.47;100.00;61586.06;4993713;28;20034;-75
2022/01/20 08:02:44;;;;;;;132.60;64.90;;;;;;;-144.47;100.00;61586.06;4991868;28;20057;-74
2022/01/20 08:05:16;;;;;;;123.18;61.85;;;;;;;-144.47;100.00;61586.06;4980137;28;20747;-74
2022/01/20 08:07:41;;;;;;;129.35;61.85;;;;;;;-144.47;100.00;61586.06;4993668;28;20089;-74
2022/01/20 08:10:07;;;;;;;119.57;60.22;;;;;;;-144.47;100.00;61586.06;4991846;28;20025;-74
2022/01/20 08:12:33;;;;;;;128.55;63.92;;;;;;;-144.47;100.00;61586.06;4995912;28;20037;-74
2022/01/20 08:15:09;;;;;;;132.43;63.28;;;;;;;-144.47;100.00;61586.06;4991015;28;20026;-74
2022/01/20 08:17:42;;;;;;;131.02;62.90;;;;;;;-144.47;100.00;61586.06;4993933;28;20052;-75
2022/01/20 08:20:11;;;;;;;127.85;64.22;;;;;;;-144.47;100.00;61586.06;4992363;28;20376;-74
2022/01/20 08:22:37;;;;;;;135.38;63.97;;;;;;;-144.47;100.00;61586.06;5008065;28;20077;-75
2022/01/20 08:25:11;;;;;;;133.63;64.18;;;;;;;-144.47;100.00;61586.06;5023689;28;20030;-75
2022/01/20 08:27:37;;;;;;;131.52;66.15;;;;;;;-144.47;100.00;61586.06;5023667;28;20133;-74
2022/01/20 08:30:09;;;;;;;140.57;66.72;;;;;;;-144.47;100.00;61586.06;4994641;28;20034;-74
2022/01/20 08:32:35;;;;;;;130.20;63.65;;;;;;;-144.47;100.00;61586.06;4995489;28;20455;-73
2022/01/20 08:35:09;;;;;;;129.05;62.47;;;;;;;-144.47;100.00;61586.06;4991084;28;20037;-75
2022/01/20 08:37:49;;;;;;;127.25;63.75;;;;;;;-144.47;100.00;61586.06;4992843;28;20530;-75
2022/01/20 08:40:18;;;;;;;128.77;64.22;;;;;;;-144.47;100.00;61586.06;4992039;28;20034;-75
2022/01/20 08:42:47;;;;;;;132.55;64.55;;;;;;;-144.47;100.00;61586.06;4990871;28;20027;-76
2022/01/20 08:45:15;;;;;;;125.05;62.33;;;;;;;-144.47;100.00;61586.06;4999441;28;20029;-74
2022/01/20 08:47:42;;;;;;;132.55;63.78;;;;;;;-144.47;100.00;61586.06;4996832;28;20026;-76
2022/01/20 08:50:11;;;;;;;127.38;63.42;;;;;;;-144.47;100.00;61586.06;4994406;28;20090;-75
2022/01/20 08:52:37;;;;;;;128.73;63.67;;;;;;;-144.47;100.00;61586.06;4996330;28;20018;-75
2022/01/20 08:55:03;;;;;;;131.75;63.15;;;;;;;-144.47;100.00;61586.06;4991935;28;20048;-75
2022/01/20 08:57:42;;;;;;;121.03;62.90;;;;;;;-144.47;100.00;61586.06;4994758;28;20430;-74
2022/01/20 09:00:09;;;;;;;125.95;61.33;;;;;;;-144.47;100.00;61586.06;4996336;28;20030;-74
2022/01/20 09:02:44;;;;;;;123.63;62.90;;;;;;;-144.47;100.00;61586.06;4998982;28;20128;-73
2022/01/20 09:05:10;;;;;;;130.38;61.97;;;;;;;-144.47;100.00;61586.06;4996724;28;20368;-75
2022/01/20 09:07:59;;;;;;;125.97;62.38;;;;;;;-144.47;100.00;61586.06;4987164;28;20121;-73
2022/01/20 09:10:25;;;;;;;124.65;61.38;;;;;;;-144.47;100.00;61586.06;4997987;28;20129;-75
2022/01/20 09:15:38;;;;;;;132.57;63.97;;;;;;;-144.47;100.00;61586.06;5026140;28;20041;-75
2022/01/20 09:18:18;;;;;;;133.82;65.80;;;;;;;-144.47;100.00;61586.06;5027889;28;20060;-75
2022/01/20 09:20:44;;;;;;;126.90;64.85;;;;;;;-144.47;100.00;61586.06;5001686;28;20116;-75
2022/01/20 09:23:10;;;;;;;124.93;62.63;;;;;;;-144.47;100.00;61586.06;4999876;28;20117;-74
2022/01/20 09:25:39;;;;;;;129.18;65.53;;;;;;;-144.47;100.00;61586.06;5003019;28;20553;-74
2022/01/20 09:28:06;;;;;;;126.80;66.18;;;;;;;-144.47;100.00;61586.06;4983676;28;20081;-75
2022/01/20 09:30:32;;;;;;;125.28;62.95;;;;;;;-144.47;100.00;61586.06;5002572;28;20038;-75
2022/01/20 09:33:01;;;;;;;130.38;63.53;;;;;;;-144.47;100.00;61586.06;4997960;28;20053;-74
2022/01/20 09:35:34;;;;;;;135.95;71.45;;;;;;;-144.47;100.00;61586.06;4998986;28;20034;-75
2022/01/20 09:38:01;;;;;;;124.85;66.70;;;;;;;-144.47;100.00;61586.06;4996885;28;20204;-75
2022/01/20 09:40:29;;;;;;;126.13;64.18;;;;;;;-144.47;100.00;61586.06;4999771;28;20483;-75
2022/01/20 09:43:03;;;;;;;123.35;61.92;;;;;;;-144.47;100.00;61586.06;4996139;28;20038;-75
2022/01/20 09:45:30;;;;;;;117.95;62.10;;;;;;;-144.47;100.00;61586.06;5001763;28;20164;-76
2022/01/20 09:47:57;;;;;;;121.55;62.10;;;;;;;-144.47;100.00;61586.06;5000293;28;20037;-75
2022/01/20 09:50:41;;;;;;;121.40;60.53;;;;;;;-144.47;100.00;61586.06;4999390;28;20069;-75
2022/01/20 09:53:30;;;;;;;129.55;64.82;;;;;;;-144.47;100.00;61586.06;5003498;28;20427;-75
2022/01/20 09:56:14;;;;;;;124.70;61.22;;;;;;;-144.47;100.00;61586.06;4999155;28;20092;-75
2022/01/20 09:58:40;;;;;;;126.85;62.00;;;;;;;-144.47;100.00;61586.06;4998544;28;20115;-74
2022/01/20 10:01:05;;;;;;;125.60;60.50;;;;;;;-144.47;100.00;61586.06;5001320;28;20116;-76
2022/01/20 10:03:31;;;;;;;116.82;59.00;;;;;;;-144.47;100.00;61586.06;4998184;28;20030;-75
2022/01/20 10:06:00;;;;;;;115.72;57.55;;;;;;;-144.47;100.00;61586.06;4996119;28;20475;-74
2022/01/20 10:08:28;;;;;;;120.10;60.58;;;;;;;-144.47;100.00;61586.06;5000875;28;20394;-76
2022/01/20 10:11:10;;;;;;;126.47;56.55;;;;;;;-144.47;100.00;61586.06;4998986;28;20054;-76
2022/01/20 10:14:05;;;;;;;119.25;59.58;;;;;;;-144.47;100.00;61586.06;4994292;28;20129;-75
2022/01/20 10:16:53;;;;;;;110.70;58.10;;;;;;;-144.47;100.00;61586.06;5000798;28;20034;-78
2022/01/20 10:19:30;;;;;;;110.78;56.70;;;;;;;-144.47;100.00;61586.06;5003599;28;20144;-82
2022/01/20 10:22:14;;;;;;;113.30;57.40;;;;;;;-144.47;100.00;61586.06;5002920;28;20367;-75
2022/01/20 10:25:19;;;;;;;109.32;55.22;;;;;;;-144.47;100.00;61586.06;5005440;28;20128;-74
2022/01/20 10:28:02;;;;;;;104.00;53.95;;;;;;;-144.47;100.00;61586.06;5000175;28;20038;-74
2022/01/20 10:30:30;;;;;;;108.25;54.03;;;;;;;-144.47;100.00;61586.06;4997801;28;20053;-75
2022/01/20 10:33:00;;;;;;;106.43;54.05;;;;;;;-144.47;100.00;61586.06;4999464;28;20237;-75
2022/01/20 10:35:35;;;;;;;92.38;48.53;;;;;;;-144.47;100.00;61586.06;4998560;28;20146;-74
2022/01/20 10:38:13;;;;;;;91.75;46.70;;;;;;;-144.47;100.00;61586.06;5000514;28;20030;-75
2022/01/20 10:40:56;;;;;;;95.18;49.10;;;;;;;-144.47;100.00;61586.06;4997357;28;20030;-75
2022/01/20 10:43:31;;;;;;;95.28;49.33;;;;;;;-144.47;100.00;61586.06;5001045;28;20092;-76
2022/01/20 10:46:06;;;;;;;98.07;49.95;;;;;;;-144.47;100.00;61586.06;4998264;28;20054;-75
2022/01/20 10:48:33;;;;;;;100.97;51.38;;;;;;;-144.47;100.00;61586.06;4995510;28;20493;-75
2022/01/20 10:51:17;;;;;;;98.82;51.58;;;;;;;-144.47;100.00;61586.06;4310324;28;10000786;-75
2022/01/20 10:53:59;;;;;;;107.35;52.55;;;;;;;-144.47;100.00;61586.06;4654603;28;10000041;-76
2022/01/20 10:56:27;;;;;;;97.90;51.67;;;;;;;-144.47;100.00;61586.06;4995862;28;20041;-75
2022/01/20 10:58:53;;;;;;;98.97;52.55;;;;;;;-144.47;100.00;61586.06;4995607;28;20136;-76
2022/01/20 11:01:19;;;;;;;101.03;51.88;;;;;;;-144.47;100.00;61586.06;5000068;28;20038;-75
2022/01/20 11:03:45;;;;;;;94.78;49.20;;;;;;;-144.47;100.00;61586.06;4997976;28;20122;-76
2022/01/20 11:06:15;;;;;;;88.60;48.42;;;;;;;-144.47;100.00;61586.06;4997756;28;20116;-76
2022/01/20 11:08:51;;;;;;;94.43;49.72;;;;;;;-144.47;100.00;61586.06;4996749;28;20104;-75
2022/01/20 11:11:24;;;;;;;96.10;52.60;;;;;;;-144.47;100.00;61586.06;4995709;28;20030;-76
2022/01/20 11:14:08;;;;;;;101.50;52.45;;;;;;;-144.47;100.00;61586.06;4300584;28;10000735;-74
2022/01/20 11:16:38;;;;;;;104.85;53.90;;;;;;;-144.47;100.00;61586.06;4994067;28;20034;-74
2022/01/20 11:19:17;;;;;;;106.85;54.20;;;;;;;-144.47;100.00;61586.06;4991112;28;20041;-74
2022/01/20 11:21:44;;;;;;;100.55;54.55;;;;;;;-144.47;100.00;61586.06;4995534;28;20399;-75
2022/01/20 11:24:24;;;;;;;116.28;60.05;;;;;;;-144.47;100.00;61586.06;5001076;28;20033;-75
2022/01/20 11:27:07;;;;;;;116.80;62.53;;;;;;;-144.47;100.00;61586.06;4995172;28;20069;-74
2022/01/20 11:29:50;;;;;;;126.35;62.83;;;;;;;-144.47;100.00;61586.06;4997841;28;20117;-76
2022/01/20 11:32:36;;;;;;;117.50;64.90;;;;;;;-144.47;100.00;61586.06;4996240;28;20113;-74
2022/01/20 11:35:19;;;;;;;119.38;62.08;;;;;;;-144.47;100.00;61586.06;4992316;28;20026;-75
2022/01/20 11:37:56;;;;;;;118.40;63.95;;;;;;;-144.47;100.00;61586.06;4998570;28;20117;-75
2022/01/20 11:40:23;;;;;;;119.30;62.05;;;;;;;-144.47;100.00;61586.06;4997150;28;20078;-75
2022/01/20 11:42:59;;;;;;;114.07;59.33;;;;;;;-144.47;100.00;61586.06;4997367;28;20398;-75
2022/01/20 11:45:28;;;;;;;111.50;58.75;;;;;;;-144.47;100.00;61586.06;4999476;28;20038;-75
2022/01/20 11:47:55;;;;;;;111.57;58.53;;;;;;;-144.47;100.00;61586.06;4999520;28;20026;-75
2022/01/20 11:50:21;;;;;;;107.00;56.33;;;;;;;-144.47;100.00;61586.06;4998548;28;20121;-75
2022/01/20 11:52:47;;;;;;;104.93;56.55;;;;;;;-144.47;100.00;61586.06;4999025;28;20058;-75
2022/01/20 11:55:16;;;;;;;105.22;55.65;;;;;;;-144.47;100.00;61586.06;5001272;28;20223;-75
2022/01/20 11:57:42;;;;;;;96.85;52.55;;;;;;;-144.47;100.00;61586.06;4997951;28;20480;-75
2022/01/20 12:00:24;;;;;;;107.82;56.38;;;;;;;-144.47;100.00;61586.06;5000997;28;20105;-76
2022/01/20 12:02:51;;;;;;;107.45;54.17;;;;;;;-144.47;100.00;61586.06;4997308;28;20038;-75
2022/01/20 12:05:31;;;;;;;101.82;53.85;;;;;;;-144.47;100.00;61586.06;4997875;28;20050;-75